sensor_id;sensor_type;location;lat;lon;timestamp;P1;durP1;ratioP1;P2;durP2;ratioP2
52740;SDS011;38634;52.138;9.912;2024-03-17T00:01:00;10.43;;;3.63;;
52740;SDS011;38634;52.138;9.912;2024-03-17T00:03:48;9.32;;;3.28;;
52740;SDS011;38634;52.138;9.912;2024-03-17T00:06:32;12.45;;;4.00;;
52740;SDS011;38634;52.138;9.912;2024-03-17T00:09:17;10.55;;;3.55;;
52740;SDS011;38634;52.138;9.912;2024-03-17T00:12:01;22.40;;;6.60;;
52740;SDS011;38634;52.138;9.912;2024-03-17T00:14:46;11.75;;;3.97;;
52740;SDS011;38634;52.138;9.912;2024-03-17T00:17:30;11.90;;;4.15;;
52740;SDS011;38634;52.138;9.912;2024-03-17T00:20:15;12.40;;;3.97;;
52740;SDS011;38634;52.138;9.912;2024-03-17T00:23:03;4.32;;;2.97;;
52740;SDS011;38634;52.138;9.912;2024-03-17T00:25:49;4.63;;;3.00;;
52740;SDS011;38634;52.138;9.912;2024-03-17T00:28:34;12.15;;;4.10;;
52740;SDS011;38634;52.138;9.912;2024-03-17T00:31:19;12.55;;;4.03;;
52740;SDS011;38634;52.138;9.912;2024-03-17T00:34:03;13.73;;;4.07;;
52740;SDS011;38634;52.138;9.912;2024-03-17T00:36:48;10.20;;;3.80;;
52740;SDS011;38634;52.138;9.912;2024-03-17T00:39:33;13.10;;;4.50;;
52740;SDS011;38634;52.138;9.912;2024-03-17T00:42:17;13.55;;;4.20;;
52740;SDS011;38634;52.138;9.912;2024-03-17T00:45:02;11.93;;;3.75;;
52740;SDS011;38634;52.138;9.912;2024-03-17T00:47:49;14.10;;;4.63;;
52740;SDS011;38634;52.138;9.912;2024-03-17T00:50:34;8.18;;;3.67;;
52740;SDS011;38634;52.138;9.912;2024-03-17T00:53:19;11.13;;;4.05;;
52740;SDS011;38634;52.138;9.912;2024-03-17T00:56:03;10.52;;;3.92;;
52740;SDS011;38634;52.138;9.912;2024-03-17T00:58:48;11.68;;;3.97;;
52740;SDS011;38634;52.138;9.912;2024-03-17T01:01:35;9.30;;;3.70;;
52740;SDS011;38634;52.138;9.912;2024-03-17T01:04:19;11.32;;;3.90;;
52740;SDS011;38634;52.138;9.912;2024-03-17T01:07:07;6.18;;;3.38;;
52740;SDS011;38634;52.138;9.912;2024-03-17T01:09:52;10.27;;;3.83;;
52740;SDS011;38634;52.138;9.912;2024-03-17T01:12:38;8.00;;;3.47;;
52740;SDS011;38634;52.138;9.912;2024-03-17T01:15:22;8.30;;;3.58;;
52740;SDS011;38634;52.138;9.912;2024-03-17T01:18:07;9.52;;;4.03;;
52740;SDS011;38634;52.138;9.912;2024-03-17T01:20:51;9.75;;;3.67;;
52740;SDS011;38634;52.138;9.912;2024-03-17T01:23:36;5.95;;;3.60;;
52740;SDS011;38634;52.138;9.912;2024-03-17T01:26:21;4.55;;;3.00;;
52740;SDS011;38634;52.138;9.912;2024-03-17T01:29:05;5.35;;;3.10;;
52740;SDS011;38634;52.138;9.912;2024-03-17T01:31:52;5.97;;;3.53;;
52740;SDS011;38634;52.138;9.912;2024-03-17T01:34:37;5.60;;;3.35;;
52740;SDS011;38634;52.138;9.912;2024-03-17T01:37:22;4.07;;;3.22;;
52740;SDS011;38634;52.138;9.912;2024-03-17T01:40:08;4.00;;;3.05;;
52740;SDS011;38634;52.138;9.912;2024-03-17T01:42:53;5.05;;;3.50;;
52740;SDS011;38634;52.138;9.912;2024-03-17T01:45:38;3.47;;;3.17;;
52740;SDS011;38634;52.138;9.912;2024-03-17T01:48:22;8.10;;;3.80;;
52740;SDS011;38634;52.138;9.912;2024-03-17T01:51:07;4.35;;;3.30;;
52740;SDS011;38634;52.138;9.912;2024-03-17T01:53:54;5.72;;;3.35;;
52740;SDS011;38634;52.138;9.912;2024-03-17T01:56:39;6.07;;;3.80;;
52740;SDS011;38634;52.138;9.912;2024-03-17T01:59:24;6.07;;;3.03;;
52740;SDS011;38634;52.138;9.912;2024-03-17T02:02:09;6.80;;;4.70;;
52740;SDS011;38634;52.138;9.912;2024-03-17T02:04:54;6.70;;;3.95;;
52740;SDS011;38634;52.138;9.912;2024-03-17T02:07:39;7.57;;;3.60;;
52740;SDS011;38634;52.138;9.912;2024-03-17T02:10:24;13.75;;;4.45;;
52740;SDS011;38634;52.138;9.912;2024-03-17T02:13:09;10.82;;;3.88;;
52740;SDS011;38634;52.138;9.912;2024-03-17T02:15:53;12.30;;;4.07;;
52740;SDS011;38634;52.138;9.912;2024-03-17T02:18:38;11.88;;;4.00;;
52740;SDS011;38634;52.138;9.912;2024-03-17T02:21:23;13.15;;;4.55;;
52740;SDS011;38634;52.138;9.912;2024-03-17T02:24:11;11.68;;;3.97;;
52740;SDS011;38634;52.138;9.912;2024-03-17T02:26:55;12.73;;;3.92;;
52740;SDS011;38634;52.138;9.912;2024-03-17T02:29:40;13.07;;;4.28;;
52740;SDS011;38634;52.138;9.912;2024-03-17T02:32:25;12.52;;;4.00;;
52740;SDS011;38634;52.138;9.912;2024-03-17T02:35:11;10.63;;;3.65;;
52740;SDS011;38634;52.138;9.912;2024-03-17T02:37:55;12.05;;;4.45;;
52740;SDS011;38634;52.138;9.912;2024-03-17T02:40:40;10.25;;;3.72;;
52740;SDS011;38634;52.138;9.912;2024-03-17T02:43:25;12.75;;;4.18;;
52740;SDS011;38634;52.138;9.912;2024-03-17T02:46:13;5.00;;;2.90;;
52740;SDS011;38634;52.138;9.912;2024-03-17T11:35:14;11.30;;;3.60;;
52740;SDS011;38634;52.138;9.912;2024-03-17T11:38:00;6.65;;;3.20;;
52740;SDS011;38634;52.138;9.912;2024-03-17T11:40:44;7.32;;;2.75;;
52740;SDS011;38634;52.138;9.912;2024-03-17T11:43:29;5.07;;;2.63;;
52740;SDS011;38634;52.138;9.912;2024-03-17T11:46:13;5.75;;;2.63;;
52740;SDS011;38634;52.138;9.912;2024-03-17T11:48:58;5.47;;;2.92;;
52740;SDS011;38634;52.138;9.912;2024-03-17T11:51:46;5.20;;;2.33;;
52740;SDS011;38634;52.138;9.912;2024-03-17T11:54:33;10.65;;;3.28;;
52740;SDS011;38634;52.138;9.912;2024-03-17T11:57:25;5.18;;;2.38;;
52740;SDS011;38634;52.138;9.912;2024-03-17T12:00:21;4.55;;;1.98;;
52740;SDS011;38634;52.138;9.912;2024-03-17T12:03:09;4.60;;;2.05;;
52740;SDS011;38634;52.138;9.912;2024-03-17T12:05:54;8.63;;;3.40;;
52740;SDS011;38634;52.138;9.912;2024-03-17T12:08:39;8.35;;;3.13;;
52740;SDS011;38634;52.138;9.912;2024-03-17T12:11:24;8.20;;;3.03;;
52740;SDS011;38634;52.138;9.912;2024-03-17T12:19:51;7.70;;;2.70;;
52740;SDS011;38634;52.138;9.912;2024-03-17T12:22:35;8.15;;;3.22;;
52740;SDS011;38634;52.138;9.912;2024-03-17T12:25:21;5.47;;;2.17;;
52740;SDS011;38634;52.138;9.912;2024-03-17T12:28:13;9.23;;;3.25;;
52740;SDS011;38634;52.138;9.912;2024-03-17T12:31:00;6.95;;;2.90;;
52740;SDS011;38634;52.138;9.912;2024-03-17T12:33:45;8.82;;;3.05;;
52740;SDS011;38634;52.138;9.912;2024-03-17T12:36:29;6.43;;;2.50;;
52740;SDS011;38634;52.138;9.912;2024-03-17T12:42:14;17.42;;;5.43;;
52740;SDS011;38634;52.138;9.912;2024-03-17T12:45:09;10.07;;;3.75;;
52740;SDS011;38634;52.138;9.912;2024-03-17T12:47:54;7.25;;;2.80;;
52740;SDS011;38634;52.138;9.912;2024-03-17T12:50:45;6.85;;;2.53;;
52740;SDS011;38634;52.138;9.912;2024-03-17T12:53:30;5.65;;;2.38;;
52740;SDS011;38634;52.138;9.912;2024-03-17T12:56:22;4.80;;;2.25;;
52740;SDS011;38634;52.138;9.912;2024-03-17T12:59:36;5.70;;;2.50;;
52740;SDS011;38634;52.138;9.912;2024-03-17T13:02:41;5.25;;;2.25;;
52740;SDS011;38634;52.138;9.912;2024-03-17T13:05:30;6.10;;;2.55;;
52740;SDS011;38634;52.138;9.912;2024-03-17T13:08:15;4.10;;;2.40;;
52740;SDS011;38634;52.138;9.912;2024-03-17T13:11:00;6.82;;;2.40;;
52740;SDS011;38634;52.138;9.912;2024-03-17T13:13:47;6.65;;;2.67;;
52740;SDS011;38634;52.138;9.912;2024-03-17T13:16:31;8.75;;;2.88;;
52740;SDS011;38634;52.138;9.912;2024-03-17T13:19:16;7.13;;;2.45;;
52740;SDS011;38634;52.138;9.912;2024-03-17T13:22:01;14.65;;;4.75;;
52740;SDS011;38634;52.138;9.912;2024-03-17T13:24:45;7.35;;;3.05;;
52740;SDS011;38634;52.138;9.912;2024-03-17T13:27:31;4.60;;;2.13;;
52740;SDS011;38634;52.138;9.912;2024-03-17T13:30:18;6.47;;;2.60;;
52740;SDS011;38634;52.138;9.912;2024-03-17T13:33:06;6.35;;;2.60;;
52740;SDS011;38634;52.138;9.912;2024-03-17T13:35:55;6.07;;;2.90;;
52740;SDS011;38634;52.138;9.912;2024-03-17T13:38:39;6.00;;;2.70;;
52740;SDS011;38634;52.138;9.912;2024-03-17T13:41:24;9.00;;;3.63;;
52740;SDS011;38634;52.138;9.912;2024-03-17T13:44:09;5.82;;;2.30;;
52740;SDS011;38634;52.138;9.912;2024-03-17T13:46:57;10.68;;;4.05;;
52740;SDS011;38634;52.138;9.912;2024-03-17T13:49:42;20.27;;;8.00;;
52740;SDS011;38634;52.138;9.912;2024-03-17T13:52:27;19.70;;;6.93;;
52740;SDS011;38634;52.138;9.912;2024-03-17T13:55:16;13.38;;;4.82;;
52740;SDS011;38634;52.138;9.912;2024-03-17T13:58:04;19.10;;;7.18;;
52740;SDS011;38634;52.138;9.912;2024-03-17T14:00:48;20.90;;;7.82;;
52740;SDS011;38634;52.138;9.912;2024-03-17T14:03:33;11.95;;;4.57;;
52740;SDS011;38634;52.138;9.912;2024-03-17T14:06:17;10.50;;;4.95;;
52740;SDS011;38634;52.138;9.912;2024-03-17T14:09:03;15.73;;;6.35;;
52740;SDS011;38634;52.138;9.912;2024-03-17T14:11:49;23.10;;;8.30;;
52740;SDS011;38634;52.138;9.912;2024-03-17T14:14:34;16.80;;;5.70;;
52740;SDS011;38634;52.138;9.912;2024-03-17T14:17:19;13.35;;;4.60;;
52740;SDS011;38634;52.138;9.912;2024-03-17T14:20:03;19.33;;;6.65;;
52740;SDS011;38634;52.138;9.912;2024-03-17T14:22:57;21.77;;;7.20;;
52740;SDS011;38634;52.138;9.912;2024-03-17T14:25:42;19.23;;;6.25;;
52740;SDS011;38634;52.138;9.912;2024-03-17T14:28:26;20.63;;;6.07;;
52740;SDS011;38634;52.138;9.912;2024-03-17T14:31:11;30.63;;;8.93;;
52740;SDS011;38634;52.138;9.912;2024-03-17T14:33:56;24.45;;;7.50;;
52740;SDS011;38634;52.138;9.912;2024-03-17T14:36:41;15.70;;;5.13;;
52740;SDS011;38634;52.138;9.912;2024-03-17T14:39:25;24.80;;;7.47;;
52740;SDS011;38634;52.138;9.912;2024-03-17T14:42:12;45.85;;;11.95;;
52740;SDS011;38634;52.138;9.912;2024-03-17T14:44:56;25.30;;;6.93;;
52740;SDS011;38634;52.138;9.912;2024-03-17T14:47:41;19.17;;;6.00;;
52740;SDS011;38634;52.138;9.912;2024-03-17T14:50:26;26.77;;;7.35;;
52740;SDS011;38634;52.138;9.912;2024-03-17T14:53:11;31.45;;;8.60;;
52740;SDS011;38634;52.138;9.912;2024-03-17T14:55:55;26.48;;;7.50;;
52740;SDS011;38634;52.138;9.912;2024-03-17T14:58:40;23.88;;;6.57;;
52740;SDS011;38634;52.138;9.912;2024-03-17T15:01:25;19.02;;;6.10;;
52740;SDS011;38634;52.138;9.912;2024-03-17T15:04:13;31.80;;;8.30;;
52740;SDS011;38634;52.138;9.912;2024-03-17T15:06:57;30.38;;;8.77;;
52740;SDS011;38634;52.138;9.912;2024-03-17T15:09:42;17.95;;;6.10;;
52740;SDS011;38634;52.138;9.912;2024-03-17T15:12:27;23.02;;;6.38;;
52740;SDS011;38634;52.138;9.912;2024-03-17T15:15:12;33.42;;;9.88;;
52740;SDS011;38634;52.138;9.912;2024-03-17T15:17:56;28.65;;;8.18;;
52740;SDS011;38634;52.138;9.912;2024-03-17T15:20:41;24.38;;;6.18;;
52740;SDS011;38634;52.138;9.912;2024-03-17T15:23:26;22.02;;;6.28;;
52740;SDS011;38634;52.138;9.912;2024-03-17T15:26:16;41.22;;;10.32;;
52740;SDS011;38634;52.138;9.912;2024-03-17T15:29:02;20.08;;;6.63;;
52740;SDS011;38634;52.138;9.912;2024-03-17T15:31:47;24.35;;;7.25;;
52740;SDS011;38634;52.138;9.912;2024-03-17T15:34:32;36.40;;;9.75;;
52740;SDS011;38634;52.138;9.912;2024-03-17T15:37:20;41.00;;;10.88;;
52740;SDS011;38634;52.138;9.912;2024-03-17T15:40:06;17.90;;;5.70;;
52740;SDS011;38634;52.138;9.912;2024-03-17T15:43:01;24.80;;;8.10;;
52740;SDS011;38634;52.138;9.912;2024-03-17T15:45:45;21.40;;;7.15;;
52740;SDS011;38634;52.138;9.912;2024-03-17T15:48:30;13.00;;;4.82;;
52740;SDS011;38634;52.138;9.912;2024-03-17T15:51:14;21.17;;;6.68;;
52740;SDS011;38634;52.138;9.912;2024-03-17T15:54:02;23.48;;;7.30;;
52740;SDS011;38634;52.138;9.912;2024-03-17T15:56:46;24.05;;;7.20;;
52740;SDS011;38634;52.138;9.912;2024-03-17T15:59:31;16.38;;;5.07;;
52740;SDS011;38634;52.138;9.912;2024-03-17T16:02:15;22.73;;;7.47;;
52740;SDS011;38634;52.138;9.912;2024-03-17T16:05:00;26.90;;;8.68;;
52740;SDS011;38634;52.138;9.912;2024-03-17T16:07:45;21.80;;;8.15;;
52740;SDS011;38634;52.138;9.912;2024-03-17T16:10:29;13.38;;;4.47;;
52740;SDS011;38634;52.138;9.912;2024-03-17T16:13:14;14.50;;;5.22;;
52740;SDS011;38634;52.138;9.912;2024-03-17T16:16:00;22.00;;;7.85;;
52740;SDS011;38634;52.138;9.912;2024-03-17T16:18:45;20.10;;;7.25;;
52740;SDS011;38634;52.138;9.912;2024-03-17T16:21:30;13.63;;;5.60;;
52740;SDS011;38634;52.138;9.912;2024-03-17T16:24:15;22.73;;;7.15;;
52740;SDS011;38634;52.138;9.912;2024-03-17T16:27:00;20.38;;;7.28;;
52740;SDS011;38634;52.138;9.912;2024-03-17T16:29:45;25.83;;;8.57;;
52740;SDS011;38634;52.138;9.912;2024-03-17T16:32:30;11.90;;;4.00;;
52740;SDS011;38634;52.138;9.912;2024-03-17T16:35:15;18.25;;;6.65;;
52740;SDS011;38634;52.138;9.912;2024-03-17T16:37:59;21.17;;;9.93;;
52740;SDS011;38634;52.138;9.912;2024-03-17T16:40:46;19.90;;;7.18;;
52740;SDS011;38634;52.138;9.912;2024-03-17T16:47:16;17.77;;;6.82;;
52740;SDS011;38634;52.138;9.912;2024-03-17T16:50:11;16.88;;;7.20;;
52740;SDS011;38634;52.138;9.912;2024-03-17T16:52:56;12.82;;;5.03;;
52740;SDS011;38634;52.138;9.912;2024-03-17T16:55:41;12.27;;;4.63;;
52740;SDS011;38634;52.138;9.912;2024-03-17T16:58:25;21.77;;;8.43;;
52740;SDS011;38634;52.138;9.912;2024-03-17T17:01:11;18.00;;;8.73;;
52740;SDS011;38634;52.138;9.912;2024-03-17T17:03:57;12.02;;;5.25;;
52740;SDS011;38634;52.138;9.912;2024-03-17T17:06:41;12.52;;;6.28;;
52740;SDS011;38634;52.138;9.912;2024-03-17T17:09:26;23.00;;;9.10;;
52740;SDS011;38634;52.138;9.912;2024-03-17T17:12:13;17.80;;;8.23;;
52740;SDS011;38634;52.138;9.912;2024-03-17T17:14:57;14.20;;;5.45;;
52740;SDS011;38634;52.138;9.912;2024-03-17T17:17:45;12.93;;;5.38;;
52740;SDS011;38634;52.138;9.912;2024-03-17T17:20:34;20.70;;;8.35;;
52740;SDS011;38634;52.138;9.912;2024-03-17T17:23:19;10.73;;;5.10;;
52740;SDS011;38634;52.138;9.912;2024-03-17T17:26:04;16.77;;;5.82;;
52740;SDS011;38634;52.138;9.912;2024-03-17T17:28:53;30.08;;;10.50;;
52740;SDS011;38634;52.138;9.912;2024-03-17T17:31:41;24.27;;;7.85;;
52740;SDS011;38634;52.138;9.912;2024-03-17T17:34:25;15.63;;;7.07;;
52740;SDS011;38634;52.138;9.912;2024-03-17T17:37:10;16.42;;;6.32;;
52740;SDS011;38634;52.138;9.912;2024-03-17T17:39:55;23.13;;;8.20;;
52740;SDS011;38634;52.138;9.912;2024-03-17T17:42:40;18.50;;;7.72;;
52740;SDS011;38634;52.138;9.912;2024-03-17T17:45:25;17.10;;;6.28;;
52740;SDS011;38634;52.138;9.912;2024-03-17T17:48:10;16.67;;;6.82;;
52740;SDS011;38634;52.138;9.912;2024-03-17T17:50:54;23.33;;;8.93;;
52740;SDS011;38634;52.138;9.912;2024-03-17T17:53:40;17.73;;;6.75;;
52740;SDS011;38634;52.138;9.912;2024-03-17T17:56:25;15.27;;;5.88;;
52740;SDS011;38634;52.138;9.912;2024-03-17T17:59:10;17.88;;;6.70;;
52740;SDS011;38634;52.138;9.912;2024-03-17T18:01:54;25.17;;;9.35;;
52740;SDS011;38634;52.138;9.912;2024-03-17T18:04:39;22.02;;;7.78;;
52740;SDS011;38634;52.138;9.912;2024-03-17T18:07:23;18.10;;;6.72;;
52740;SDS011;38634;52.138;9.912;2024-03-17T18:10:08;21.73;;;6.43;;
52740;SDS011;38634;52.138;9.912;2024-03-17T18:12:53;38.72;;;10.55;;
52740;SDS011;38634;52.138;9.912;2024-03-17T18:15:38;13.40;;;4.32;;
52740;SDS011;38634;52.138;9.912;2024-03-17T18:18:26;17.17;;;5.53;;
52740;SDS011;38634;52.138;9.912;2024-03-17T18:21:12;18.48;;;4.93;;
52740;SDS011;38634;52.138;9.912;2024-03-17T18:23:58;19.52;;;5.28;;
52740;SDS011;38634;52.138;9.912;2024-03-17T18:26:43;14.52;;;4.75;;
52740;SDS011;38634;52.138;9.912;2024-03-17T18:29:30;14.02;;;4.10;;
52740;SDS011;38634;52.138;9.912;2024-03-17T18:32:15;13.25;;;3.97;;
52740;SDS011;38634;52.138;9.912;2024-03-17T18:34:59;10.98;;;3.72;;
52740;SDS011;38634;52.138;9.912;2024-03-17T18:37:44;17.10;;;4.82;;
52740;SDS011;38634;52.138;9.912;2024-03-17T18:40:29;11.80;;;3.95;;
52740;SDS011;38634;52.138;9.912;2024-03-17T18:43:14;9.52;;;3.47;;
52740;SDS011;38634;52.138;9.912;2024-03-17T18:46:10;8.75;;;3.10;;
52740;SDS011;38634;52.138;9.912;2024-03-17T18:48:55;9.40;;;4.22;;
52740;SDS011;38634;52.138;9.912;2024-03-17T18:51:42;12.18;;;3.97;;
52740;SDS011;38634;52.138;9.912;2024-03-17T18:54:26;11.45;;;3.65;;
52740;SDS011;38634;52.138;9.912;2024-03-17T18:57:11;9.07;;;3.05;;
52740;SDS011;38634;52.138;9.912;2024-03-17T18:59:55;11.55;;;3.63;;
52740;SDS011;38634;52.138;9.912;2024-03-17T19:02:40;11.73;;;3.65;;
52740;SDS011;38634;52.138;9.912;2024-03-17T19:05:27;10.75;;;3.35;;
52740;SDS011;38634;52.138;9.912;2024-03-17T19:08:16;14.80;;;4.47;;
52740;SDS011;38634;52.138;9.912;2024-03-17T19:11:00;12.25;;;3.88;;
52740;SDS011;38634;52.138;9.912;2024-03-17T19:13:46;11.40;;;3.78;;
52740;SDS011;38634;52.138;9.912;2024-03-17T19:16:30;9.35;;;3.13;;
52740;SDS011;38634;52.138;9.912;2024-03-17T19:19:15;11.90;;;3.72;;
52740;SDS011;38634;52.138;9.912;2024-03-17T19:22:00;23.45;;;6.32;;
52740;SDS011;38634;52.138;9.912;2024-03-17T19:24:52;13.13;;;3.67;;
52740;SDS011;38634;52.138;9.912;2024-03-17T19:27:38;14.40;;;4.35;;
52740;SDS011;38634;52.138;9.912;2024-03-17T19:30:22;13.23;;;3.88;;
52740;SDS011;38634;52.138;9.912;2024-03-17T19:33:08;13.27;;;4.13;;
52740;SDS011;38634;52.138;9.912;2024-03-17T19:35:56;14.73;;;4.50;;
52740;SDS011;38634;52.138;9.912;2024-03-17T19:38:40;12.52;;;3.78;;
52740;SDS011;38634;52.138;9.912;2024-03-17T19:41:30;9.73;;;3.38;;
52740;SDS011;38634;52.138;9.912;2024-03-17T19:44:15;14.05;;;4.53;;
52740;SDS011;38634;52.138;9.912;2024-03-17T19:46:59;10.30;;;3.53;;
52740;SDS011;38634;52.138;9.912;2024-03-17T19:49:45;12.90;;;3.90;;
52740;SDS011;38634;52.138;9.912;2024-03-17T19:52:29;13.10;;;4.38;;
52740;SDS011;38634;52.138;9.912;2024-03-17T19:55:14;14.05;;;3.97;;
52740;SDS011;38634;52.138;9.912;2024-03-17T19:57:59;11.35;;;3.67;;
52740;SDS011;38634;52.138;9.912;2024-03-17T20:00:44;18.15;;;4.88;;
52740;SDS011;38634;52.138;9.912;2024-03-17T20:03:29;13.68;;;3.90;;
52740;SDS011;38634;52.138;9.912;2024-03-17T20:06:19;12.48;;;3.88;;
52740;SDS011;38634;52.138;9.912;2024-03-17T20:09:05;13.27;;;4.38;;
52740;SDS011;38634;52.138;9.912;2024-03-17T20:11:51;12.15;;;4.15;;
52740;SDS011;38634;52.138;9.912;2024-03-17T20:14:36;10.23;;;3.20;;
52740;SDS011;38634;52.138;9.912;2024-03-17T20:17:20;10.43;;;3.40;;
52740;SDS011;38634;52.138;9.912;2024-03-17T20:20:05;12.13;;;3.72;;
52740;SDS011;38634;52.138;9.912;2024-03-17T20:22:52;11.90;;;3.70;;
52740;SDS011;38634;52.138;9.912;2024-03-17T20:25:37;13.93;;;3.92;;
52740;SDS011;38634;52.138;9.912;2024-03-17T20:28:22;13.70;;;3.90;;
52740;SDS011;38634;52.138;9.912;2024-03-17T20:31:11;7.38;;;3.25;;
52740;SDS011;38634;52.138;9.912;2024-03-17T20:34:06;7.50;;;3.45;;
52740;SDS011;38634;52.138;9.912;2024-03-17T20:36:50;6.43;;;3.00;;
52740;SDS011;38634;52.138;9.912;2024-03-17T20:39:35;8.93;;;3.42;;
52740;SDS011;38634;52.138;9.912;2024-03-17T20:42:20;6.90;;;2.80;;
52740;SDS011;38634;52.138;9.912;2024-03-17T20:45:04;5.63;;;2.85;;
52740;SDS011;38634;52.138;9.912;2024-03-17T20:47:49;6.22;;;3.00;;
52740;SDS011;38634;52.138;9.912;2024-03-17T20:50:37;8.48;;;3.60;;
52740;SDS011;38634;52.138;9.912;2024-03-17T20:53:22;24.63;;;7.25;;
52740;SDS011;38634;52.138;9.912;2024-03-17T20:56:06;17.23;;;6.97;;
52740;SDS011;38634;52.138;9.912;2024-03-17T20:58:51;14.48;;;5.43;;
52740;SDS011;38634;52.138;9.912;2024-03-17T21:01:35;9.23;;;4.57;;
52740;SDS011;38634;52.138;9.912;2024-03-17T21:04:20;11.02;;;3.88;;
52740;SDS011;38634;52.138;9.912;2024-03-17T21:07:05;12.65;;;4.22;;
52740;SDS011;38634;52.138;9.912;2024-03-17T21:09:52;10.68;;;4.22;;
52740;SDS011;38634;52.138;9.912;2024-03-17T21:12:36;11.18;;;3.55;;
52740;SDS011;38634;52.138;9.912;2024-03-17T21:15:23;8.50;;;3.35;;
52740;SDS011;38634;52.138;9.912;2024-03-17T21:18:07;12.18;;;4.15;;
52740;SDS011;38634;52.138;9.912;2024-03-17T21:20:59;9.20;;;3.25;;
52740;SDS011;38634;52.138;9.912;2024-03-17T21:23:47;12.88;;;4.00;;
52740;SDS011;38634;52.138;9.912;2024-03-17T21:26:33;12.90;;;4.38;;
52740;SDS011;38634;52.138;9.912;2024-03-17T21:29:18;11.45;;;3.53;;
52740;SDS011;38634;52.138;9.912;2024-03-17T21:32:03;22.50;;;6.25;;
52740;SDS011;38634;52.138;9.912;2024-03-17T21:34:50;10.25;;;3.08;;
52740;SDS011;38634;52.138;9.912;2024-03-17T21:37:42;17.67;;;5.40;;
52740;SDS011;38634;52.138;9.912;2024-03-17T21:40:26;9.50;;;3.20;;
52740;SDS011;38634;52.138;9.912;2024-03-17T21:43:11;11.43;;;3.85;;
52740;SDS011;38634;52.138;9.912;2024-03-17T21:46:00;13.02;;;3.90;;
52740;SDS011;38634;52.138;9.912;2024-03-17T21:48:44;12.18;;;3.60;;
52740;SDS011;38634;52.138;9.912;2024-03-17T21:51:30;13.40;;;3.78;;
52740;SDS011;38634;52.138;9.912;2024-03-17T21:54:15;13.25;;;3.42;;
52740;SDS011;38634;52.138;9.912;2024-03-17T21:56:59;13.40;;;4.00;;
52740;SDS011;38634;52.138;9.912;2024-03-17T21:59:44;15.40;;;4.15;;
52740;SDS011;38634;52.138;9.912;2024-03-17T22:02:29;17.60;;;4.45;;
52740;SDS011;38634;52.138;9.912;2024-03-17T22:05:14;12.80;;;3.55;;
52740;SDS011;38634;52.138;9.912;2024-03-17T22:07:58;15.25;;;4.57;;
52740;SDS011;38634;52.138;9.912;2024-03-17T22:10:56;12.50;;;3.80;;
52740;SDS011;38634;52.138;9.912;2024-03-17T22:13:42;6.25;;;3.38;;
52740;SDS011;38634;52.138;9.912;2024-03-17T22:16:26;7.30;;;2.92;;
52740;SDS011;38634;52.138;9.912;2024-03-17T22:19:11;10.95;;;4.10;;
52740;SDS011;38634;52.138;9.912;2024-03-17T22:21:55;8.73;;;3.38;;
52740;SDS011;38634;52.138;9.912;2024-03-17T22:24:40;14.90;;;4.95;;
52740;SDS011;38634;52.138;9.912;2024-03-17T22:27:24;13.40;;;9.25;;
52740;SDS011;38634;52.138;9.912;2024-03-17T22:30:09;12.77;;;9.52;;
52740;SDS011;38634;52.138;9.912;2024-03-17T22:32:55;9.88;;;7.82;;
52740;SDS011;38634;52.138;9.912;2024-03-17T22:35:40;8.55;;;6.65;;
52740;SDS011;38634;52.138;9.912;2024-03-17T22:38:28;6.57;;;3.10;;
52740;SDS011;38634;52.138;9.912;2024-03-17T22:41:14;8.23;;;3.20;;
52740;SDS011;38634;52.138;9.912;2024-03-17T22:43:59;6.57;;;3.22;;
52740;SDS011;38634;52.138;9.912;2024-03-17T22:46:44;6.90;;;3.22;;
52740;SDS011;38634;52.138;9.912;2024-03-17T22:49:28;6.70;;;3.35;;
52740;SDS011;38634;52.138;9.912;2024-03-17T22:52:13;12.35;;;5.97;;
52740;SDS011;38634;52.138;9.912;2024-03-17T22:54:57;10.65;;;3.70;;
52740;SDS011;38634;52.138;9.912;2024-03-17T22:57:42;11.63;;;3.85;;
52740;SDS011;38634;52.138;9.912;2024-03-17T23:00:26;6.97;;;3.22;;
52740;SDS011;38634;52.138;9.912;2024-03-17T23:03:25;12.75;;;3.80;;
52740;SDS011;38634;52.138;9.912;2024-03-17T23:06:11;14.90;;;4.47;;
52740;SDS011;38634;52.138;9.912;2024-03-17T23:08:55;17.55;;;4.82;;
52740;SDS011;38634;52.138;9.912;2024-03-17T23:11:40;9.77;;;3.40;;
52740;SDS011;38634;52.138;9.912;2024-03-17T23:14:25;15.50;;;4.13;;
52740;SDS011;38634;52.138;9.912;2024-03-17T23:17:09;8.73;;;2.85;;
52740;SDS011;38634;52.138;9.912;2024-03-17T23:19:54;13.02;;;4.00;;
52740;SDS011;38634;52.138;9.912;2024-03-17T23:22:39;10.85;;;3.40;;
52740;SDS011;38634;52.138;9.912;2024-03-17T23:25:23;13.60;;;4.30;;
52740;SDS011;38634;52.138;9.912;2024-03-17T23:28:08;10.95;;;3.22;;
52740;SDS011;38634;52.138;9.912;2024-03-17T23:30:54;15.02;;;4.82;;
52740;SDS011;38634;52.138;9.912;2024-03-17T23:33:38;14.15;;;4.47;;
52740;SDS011;38634;52.138;9.912;2024-03-17T23:36:23;11.30;;;3.72;;
52740;SDS011;38634;52.138;9.912;2024-03-17T23:39:08;14.82;;;4.28;;
52740;SDS011;38634;52.138;9.912;2024-03-17T23:41:52;17.05;;;5.05;;
52740;SDS011;38634;52.138;9.912;2024-03-17T23:44:37;13.73;;;4.30;;
52740;SDS011;38634;52.138;9.912;2024-03-17T23:47:21;10.57;;;3.95;;
52740;SDS011;38634;52.138;9.912;2024-03-17T23:50:06;14.70;;;4.25;;
52740;SDS011;38634;52.138;9.912;2024-03-17T23:52:53;14.75;;;4.35;;
52740;SDS011;38634;52.138;9.912;2024-03-17T23:55:38;9.43;;;3.72;;
52740;SDS011;38634;52.138;9.912;2024-03-17T23:58:22;21.75;;;9.65;;
